Terminal Aerodrome Forecast
Issued by NWS Flagstaff, AZ

Home | Current Version | Previous Version | Text Only | Print | Product List | Glossary On
Versions: 1 2 3 4 5 6 7 8 9 10 11 12 13 14 15 16 17 18 19 20 21 22 23 24 25 26 27 28 29 30
000
FTUS45 KFGZ 192320
TAFFLG
TAF
KFLG 192320Z 2000/2024 20007KT P6SM VCSH BKN070
     FM200200 VRB04KT P6SM SCT070 BKN200
     FM201700 16012G22KT P6SM SCT060 BKN100 PROB30 2017/2020 -SHRA
      BKN060
     FM202000 18012G22KT P6SM BKN060
      TEMPO 2020/2024 -SHRA BKN040=

USA.gov is the U.S. government's official web portal to all federal, state and local government web resources and services.